Aviation Digital Data Service (ADDS)

Output produced by METARs form (2043 UTC 27 April 2015)
found at http://aviationweather.gov/adds/metars/
 
KBGR 271737Z 2718/2818 36015G25KT P6SM -SHRA SCT015 OVC025 
     FM272300 36015KT P6SM SCT025 OVC035 
     FM281200 01011KT P6SM BKN035